createdAt,value
2019-02-21T00:00:47.519Z,7.60
2019-02-21T00:01:33.211Z,7.60
2019-02-21T00:02:16.847Z,7.70
2019-02-21T00:02:52.409Z,7.60
2019-02-21T00:03:27.963Z,7.60
2019-02-21T00:04:03.543Z,7.60
2019-02-21T00:04:39.145Z,7.60
2019-02-21T00:05:14.712Z,7.60
2019-02-21T00:05:50.435Z,7.60
2019-02-21T00:06:27.009Z,7.60
2019-02-21T00:07:02.559Z,7.60
2019-02-21T00:07:38.970Z,7.60
2019-02-21T00:08:14.571Z,7.60
2019-02-21T00:08:50.568Z,7.60
2019-02-21T00:09:26.115Z,7.60
2019-02-21T00:10:01.660Z,7.70
2019-02-21T00:10:38.379Z,7.60
2019-02-21T00:11:14.000Z,7.60
2019-02-21T00:11:49.566Z,7.60
2019-02-21T00:12:25.185Z,7.60
2019-02-21T00:13:00.703Z,7.60
2019-02-21T00:13:36.313Z,7.60
2019-02-21T00:14:12.334Z,7.60
2019-02-21T00:14:47.943Z,7.60
2019-02-21T00:15:23.778Z,7.60
2019-02-21T00:15:59.307Z,7.60
2019-02-21T00:16:34.903Z,7.60
2019-02-21T00:17:10.459Z,7.60
2019-02-21T00:17:46.539Z,7.60
2019-02-21T00:18:22.069Z,7.50
2019-02-21T00:18:57.630Z,7.60
2019-02-21T00:19:33.179Z,7.60
2019-02-21T00:20:08.967Z,7.60
2019-02-21T00:20:45.638Z,7.50
2019-02-21T00:21:21.159Z,7.50
2019-02-21T00:21:56.686Z,7.50
2019-02-21T00:22:32.290Z,7.50
2019-02-21T00:23:07.851Z,7.50
2019-02-21T00:23:43.406Z,7.50
2019-02-21T00:24:20.011Z,7.50
2019-02-21T00:24:55.707Z,7.50
2019-02-21T00:25:31.314Z,7.50
2019-02-21T00:26:06.867Z,7.50
2019-02-21T00:26:44.267Z,7.60
2019-02-21T00:27:20.124Z,7.50
2019-02-21T00:27:55.942Z,7.50
2019-02-21T00:28:31.599Z,7.50
2019-02-21T00:29:07.193Z,7.50
2019-02-21T00:29:42.781Z,7.50
2019-02-21T00:30:18.363Z,7.60
2019-02-21T00:30:53.899Z,7.50
2019-02-21T00:31:29.496Z,7.50
2019-02-21T00:32:05.098Z,7.60
2019-02-21T00:32:40.828Z,7.60
2019-02-21T00:33:16.775Z,7.50
2019-02-21T00:33:52.360Z,7.60
2019-02-21T00:34:28.226Z,7.60
2019-02-21T00:35:03.979Z,7.60
2019-02-21T00:35:39.752Z,7.60
2019-02-21T00:36:15.948Z,7.60
2019-02-21T00:36:51.567Z,7.60
2019-02-21T00:37:27.353Z,7.60
2019-02-21T00:38:02.866Z,7.60
2019-02-21T00:38:38.402Z,7.60
2019-02-21T00:39:13.925Z,7.60
2019-02-21T00:39:49.459Z,7.60
2019-02-21T00:40:25.106Z,7.60
2019-02-21T00:41:01.598Z,7.60
2019-02-21T00:41:37.192Z,7.60
2019-02-21T00:42:12.730Z,7.50
2019-02-21T00:42:48.259Z,7.50
2019-02-21T00:43:23.802Z,7.50
2019-02-21T00:43:59.333Z,7.50
2019-02-21T00:44:34.866Z,7.50
2019-02-21T00:45:10.651Z,7.50
2019-02-21T00:45:46.275Z,7.50
2019-02-21T00:46:21.799Z,7.50
2019-02-21T00:46:58.450Z,7.60
2019-02-21T00:47:34.068Z,7.50
2019-02-21T00:48:09.651Z,7.50
2019-02-21T00:48:45.347Z,7.50
2019-02-21T00:49:21.174Z,7.50
2019-02-21T00:49:56.991Z,7.50
2019-02-21T00:50:32.539Z,7.50
2019-02-21T00:51:08.084Z,7.50
2019-02-21T00:51:43.679Z,7.50
2019-02-21T00:52:19.280Z,7.50
2019-02-21T00:52:54.802Z,7.50
2019-02-21T00:53:30.351Z,7.50
2019-02-21T00:54:07.766Z,7.40
2019-02-21T00:54:43.642Z,7.40
2019-02-21T00:55:19.187Z,7.40
2019-02-21T00:55:55.079Z,7.40
2019-02-21T00:56:30.614Z,7.40
2019-02-21T00:57:06.162Z,7.40
2019-02-21T00:57:42.077Z,7.40
2019-02-21T00:58:17.584Z,7.40
2019-02-21T00:58:53.374Z,7.40
2019-02-21T00:59:28.930Z,7.40
2019-02-21T01:00:04.818Z,7.40
2019-02-21T01:00:46.515Z,7.40
2019-02-21T01:01:20.872Z,7.40
2019-02-21T01:01:56.619Z,7.30
2019-02-21T01:02:32.563Z,7.40
2019-02-21T01:03:08.342Z,7.40
2019-02-21T01:03:43.902Z,7.30
2019-02-21T01:04:19.469Z,7.30
2019-02-21T01:04:54.991Z,7.30
2019-02-21T01:05:32.871Z,7.30
2019-02-21T01:06:08.416Z,7.30
2019-02-21T01:06:44.022Z,7.30
2019-02-21T01:07:19.555Z,7.30
2019-02-21T01:07:55.395Z,7.30
2019-02-21T01:08:31.034Z,7.30
2019-02-21T01:09:06.561Z,7.30
2019-02-21T01:09:42.307Z,7.30
2019-02-21T01:10:17.878Z,7.30
2019-02-21T01:10:53.432Z,7.30
2019-02-21T01:11:29.015Z,7.30
2019-02-21T01:12:04.841Z,7.30
2019-02-21T01:12:40.404Z,7.30
2019-02-21T01:13:15.937Z,7.30
2019-02-21T01:13:51.867Z,7.30
2019-02-21T01:14:27.394Z,7.30
2019-02-21T01:15:03.204Z,7.30
2019-02-21T01:15:41.093Z,7.30
2019-02-21T01:16:16.656Z,7.30
2019-02-21T01:16:52.256Z,7.30
2019-02-21T01:17:28.886Z,7.30
2019-02-21T01:18:04.430Z,7.30
2019-02-21T01:18:40.591Z,7.30
2019-02-21T01:19:16.190Z,7.30
2019-02-21T01:19:51.727Z,7.30
2019-02-21T01:20:27.337Z,7.20
2019-02-21T01:21:02.868Z,7.30
2019-02-21T01:21:38.490Z,7.30
2019-02-21T01:22:14.043Z,7.20
2019-02-21T01:22:49.627Z,7.30
2019-02-21T01:23:26.688Z,7.20
2019-02-21T01:24:04.937Z,7.20
2019-02-21T01:24:39.768Z,7.20
2019-02-21T01:25:15.306Z,7.20
2019-02-21T01:25:52.632Z,7.30
2019-02-21T01:26:28.194Z,7.20
2019-02-21T01:27:03.787Z,7.20
2019-02-21T01:27:39.329Z,7.20
2019-02-21T01:28:14.899Z,7.20
2019-02-21T01:28:50.562Z,7.20
2019-02-21T01:29:26.081Z,7.20
2019-02-21T01:30:01.725Z,7.20
2019-02-21T01:30:38.226Z,7.20
2019-02-21T01:31:13.790Z,7.20
2019-02-21T01:31:49.622Z,7.20
2019-02-21T01:32:25.158Z,7.20
2019-02-21T01:33:00.947Z,7.20
2019-02-21T01:33:36.739Z,7.20
2019-02-21T01:34:13.497Z,7.20
2019-02-21T01:34:49.348Z,7.20
2019-02-21T01:35:24.930Z,7.20
2019-02-21T01:36:00.732Z,7.20
2019-02-21T01:36:36.564Z,7.20
2019-02-21T01:37:12.210Z,7.20
2019-02-21T01:37:47.754Z,7.20
2019-02-21T01:38:23.302Z,7.20
2019-02-21T01:38:58.850Z,7.20
2019-02-21T01:39:34.543Z,7.20
2019-02-21T01:40:10.103Z,7.20
2019-02-21T01:40:45.946Z,7.10
2019-02-21T01:41:21.851Z,7.20
2019-02-21T01:41:57.461Z,7.10
2019-02-21T01:42:32.991Z,7.10
2019-02-21T01:43:08.563Z,7.10
2019-02-21T01:43:44.100Z,7.10
2019-02-21T01:44:19.688Z,7.10
2019-02-21T01:44:55.278Z,7.10
2019-02-21T01:45:30.825Z,7.10
2019-02-21T01:46:06.802Z,7.10
2019-02-21T01:46:42.388Z,7.10
2019-02-21T01:47:17.999Z,7.10
2019-02-21T01:47:53.566Z,7.10
2019-02-21T01:48:29.692Z,7.10
2019-02-21T01:49:05.699Z,7.10
2019-02-21T01:49:41.540Z,7.10
2019-02-21T01:50:17.131Z,7.10
2019-02-21T01:50:52.762Z,7.10
2019-02-21T01:51:28.371Z,7.10
2019-02-21T01:52:03.914Z,7.10
2019-02-21T01:52:39.691Z,7.10
2019-02-21T01:53:15.355Z,7.10
2019-02-21T01:53:50.902Z,7.10
2019-02-21T01:54:27.144Z,7.00
2019-02-21T01:55:02.667Z,7.00
2019-02-21T01:55:38.235Z,7.10
2019-02-21T01:56:14.747Z,7.00
2019-02-21T01:56:50.337Z,7.00
2019-02-21T01:57:25.963Z,7.00
2019-02-21T01:58:01.927Z,7.00
2019-02-21T01:58:37.450Z,7.00
2019-02-21T01:59:12.994Z,7.00
2019-02-21T01:59:48.579Z,7.00
2019-02-21T02:00:24.108Z,7.00
2019-02-21T02:01:07.891Z,7.00
2019-02-21T02:01:36.951Z,7.00
2019-02-21T02:02:12.566Z,7.00
2019-02-21T02:02:48.107Z,7.00
2019-02-21T02:03:23.776Z,7.00
2019-02-21T02:03:59.394Z,7.00
2019-02-21T02:04:34.947Z,7.00
2019-02-21T02:05:10.495Z,7.00
2019-02-21T02:05:46.940Z,7.00
2019-02-21T02:06:22.804Z,7.00
2019-02-21T02:06:58.676Z,7.00
2019-02-21T02:07:34.619Z,7.00
2019-02-21T02:08:12.559Z,7.00
2019-02-21T02:08:48.086Z,7.00
2019-02-21T02:09:23.699Z,7.00
2019-02-21T02:09:59.251Z,6.90
2019-02-21T02:10:34.803Z,6.90
2019-02-21T02:11:10.430Z,7.00
2019-02-21T02:11:46.044Z,6.90
2019-02-21T02:12:21.928Z,6.90
2019-02-21T02:12:58.793Z,6.90
2019-02-21T02:13:34.351Z,6.90
2019-02-21T02:14:09.928Z,6.90
2019-02-21T02:14:46.574Z,6.90
2019-02-21T02:15:22.463Z,6.90
2019-02-21T02:15:57.991Z,6.90
2019-02-21T02:16:33.515Z,7.00
2019-02-21T02:17:09.747Z,6.90
2019-02-21T02:17:45.267Z,6.90
2019-02-21T02:18:20.805Z,6.90
2019-02-21T02:18:56.334Z,6.90
2019-02-21T02:19:31.960Z,6.90
2019-02-21T02:20:07.528Z,6.90
2019-02-21T02:20:43.309Z,6.90
2019-02-21T02:21:18.831Z,6.90
2019-02-21T02:21:54.381Z,6.90
2019-02-21T02:22:29.966Z,6.90
2019-02-21T02:23:05.582Z,6.90
2019-02-21T02:23:41.455Z,6.90
2019-02-21T02:24:17.006Z,6.90
2019-02-21T02:24:52.566Z,6.90
2019-02-21T02:25:28.791Z,6.90
2019-02-21T02:26:04.606Z,6.90
2019-02-21T02:26:40.122Z,6.90
2019-02-21T02:27:15.701Z,6.90
2019-02-21T02:27:51.655Z,6.90
2019-02-21T02:28:27.237Z,6.90
2019-02-21T02:29:02.818Z,6.90
2019-02-21T02:29:38.423Z,6.90
2019-02-21T02:30:14.355Z,6.90
2019-02-21T02:30:49.916Z,6.90
2019-02-21T02:31:25.457Z,6.90
2019-02-21T02:32:01.379Z,6.90
2019-02-21T02:32:37.033Z,6.90
2019-02-21T02:33:12.666Z,6.80
2019-02-21T02:33:48.293Z,6.90
2019-02-21T02:34:23.862Z,6.90
2019-02-21T02:34:59.999Z,6.90
2019-02-21T02:35:35.633Z,6.90
2019-02-21T02:36:12.263Z,6.90
2019-02-21T02:36:48.243Z,6.90
2019-02-21T02:37:23.795Z,6.90
2019-02-21T02:37:59.347Z,6.90
2019-02-21T02:38:34.894Z,6.90
2019-02-21T02:39:10.590Z,6.90
2019-02-21T02:39:46.149Z,6.90
2019-02-21T02:40:23.512Z,6.90
2019-02-21T02:40:59.075Z,6.90
2019-02-21T02:41:35.144Z,6.90
2019-02-21T02:42:10.776Z,6.90
2019-02-21T02:42:47.386Z,6.90
2019-02-21T02:43:23.179Z,6.90
2019-02-21T02:43:58.779Z,6.90
2019-02-21T02:44:34.332Z,6.90
2019-02-21T02:45:09.948Z,6.90
2019-02-21T02:45:45.748Z,6.90
2019-02-21T02:46:21.280Z,6.90
2019-02-21T02:46:56.946Z,6.90
2019-02-21T02:47:33.693Z,6.90
2019-02-21T02:48:09.659Z,6.90
2019-02-21T02:48:45.219Z,7.00
2019-02-21T02:49:20.892Z,6.90
2019-02-21T02:49:56.694Z,6.90
2019-02-21T02:50:32.645Z,6.90
2019-02-21T02:51:08.210Z,6.90
2019-02-21T02:51:44.087Z,7.00
2019-02-21T02:52:19.692Z,7.00
2019-02-21T02:52:55.270Z,7.00
2019-02-21T02:53:30.818Z,7.00
2019-02-21T02:54:06.701Z,7.00
2019-02-21T02:54:42.248Z,7.00
2019-02-21T02:55:17.786Z,7.00
2019-02-21T02:55:53.332Z,7.00
2019-02-21T02:56:29.331Z,7.00
2019-02-21T02:57:05.583Z,7.00
2019-02-21T02:57:41.458Z,7.00
2019-02-21T02:58:17.511Z,7.00
2019-02-21T02:58:53.048Z,7.00
2019-02-21T02:59:40.018Z,7.00
2019-02-21T03:00:06.768Z,7.00
2019-02-21T03:00:42.697Z,7.00
2019-02-21T03:01:18.231Z,7.00
2019-02-21T03:01:53.846Z,7.00
2019-02-21T03:02:29.781Z,7.00
2019-02-21T03:03:05.317Z,7.00
2019-02-21T03:03:41.178Z,7.00
2019-02-21T03:04:17.118Z,7.00
2019-02-21T03:04:52.677Z,7.00
2019-02-21T03:05:28.476Z,7.00
2019-02-21T03:06:04.037Z,7.00
2019-02-21T03:06:40.791Z,7.00
2019-02-21T03:07:16.827Z,7.00
2019-02-21T03:07:52.379Z,7.00
2019-02-21T03:08:28.183Z,7.00
2019-02-21T03:09:04.399Z,7.00
2019-02-21T03:09:41.590Z,7.00
2019-02-21T03:10:17.928Z,7.00
2019-02-21T03:10:53.550Z,7.00
2019-02-21T03:11:29.744Z,7.10
2019-02-21T03:12:05.625Z,7.10
2019-02-21T03:12:41.268Z,7.10
2019-02-21T03:13:16.886Z,7.00
2019-02-21T03:13:52.810Z,7.00
2019-02-21T03:14:28.354Z,7.10
2019-02-21T03:15:04.448Z,7.10
2019-02-21T03:15:40.169Z,7.10
2019-02-21T03:16:15.699Z,7.10
2019-02-21T03:16:51.462Z,7.10
2019-02-21T03:17:27.055Z,7.10
2019-02-21T03:18:04.218Z,7.10
2019-02-21T03:18:39.779Z,7.10
2019-02-21T03:19:15.317Z,7.10
2019-02-21T03:19:50.883Z,7.10
2019-02-21T03:20:26.487Z,7.10
2019-02-21T03:21:02.117Z,7.10
2019-02-21T03:21:37.658Z,7.10
2019-02-21T03:22:13.214Z,7.10
2019-02-21T03:22:50.008Z,7.10
2019-02-21T03:23:25.807Z,7.10
2019-02-21T03:24:01.355Z,7.10
2019-02-21T03:24:37.188Z,7.10
2019-02-21T03:25:12.744Z,7.10
2019-02-21T03:25:48.986Z,7.10
2019-02-21T03:26:24.529Z,7.10
2019-02-21T03:27:00.060Z,7.10
2019-02-21T03:27:35.597Z,7.10
2019-02-21T03:28:12.372Z,7.10
2019-02-21T03:28:47.950Z,7.10
2019-02-21T03:29:24.560Z,7.10
2019-02-21T03:30:00.387Z,7.20
2019-02-21T03:30:36.132Z,7.10
2019-02-21T03:31:12.021Z,7.20
2019-02-21T03:31:54.288Z,7.20
2019-02-21T03:32:24.855Z,7.20
2019-02-21T03:33:00.409Z,7.20
2019-02-21T03:33:36.073Z,7.20
2019-02-21T03:34:12.022Z,7.20
2019-02-21T03:34:47.598Z,7.20
2019-02-21T03:35:24.207Z,7.20
2019-02-21T03:35:59.767Z,7.20
2019-02-21T03:36:35.328Z,7.20
2019-02-21T03:37:10.969Z,7.20
2019-02-21T03:37:46.607Z,7.20
2019-02-21T03:38:22.436Z,7.20
2019-02-21T03:38:58.019Z,7.20
2019-02-21T03:39:33.628Z,7.20
2019-02-21T03:40:09.281Z,7.20
2019-02-21T03:40:44.848Z,7.20
2019-02-21T03:41:20.452Z,7.20
2019-02-21T03:41:55.986Z,7.20
2019-02-21T03:42:31.547Z,7.20
2019-02-21T03:43:07.347Z,7.20
2019-02-21T03:43:42.994Z,7.20
2019-02-21T03:44:18.551Z,7.20
2019-02-21T03:44:54.088Z,7.20
2019-02-21T03:45:29.648Z,7.20
2019-02-21T03:46:05.202Z,7.20
2019-02-21T03:46:41.046Z,7.20
2019-02-21T03:47:16.578Z,7.20
2019-02-21T03:47:52.176Z,7.20
2019-02-21T03:48:27.715Z,7.20
2019-02-21T03:49:03.251Z,7.20
2019-02-21T03:49:38.783Z,7.20
2019-02-21T03:50:14.488Z,7.20
2019-02-21T03:50:50.283Z,7.20
2019-02-21T03:51:25.863Z,7.20
2019-02-21T03:52:02.382Z,7.20
2019-02-21T03:52:38.008Z,7.20
2019-02-21T03:53:13.550Z,7.20
2019-02-21T03:53:49.107Z,7.20
2019-02-21T03:54:24.652Z,7.20
2019-02-21T03:55:00.430Z,7.20
2019-02-21T03:55:36.115Z,7.20
2019-02-21T03:56:13.266Z,7.20
2019-02-21T03:56:49.130Z,7.20
2019-02-21T03:57:24.669Z,7.20
2019-02-21T03:58:00.235Z,7.20
2019-02-21T03:58:36.411Z,7.20
2019-02-21T03:59:12.920Z,7.20
2019-02-21T03:59:48.479Z,7.20
2019-02-21T04:00:24.079Z,7.20
2019-02-21T04:00:59.894Z,7.20
2019-02-21T04:01:35.495Z,7.20
2019-02-21T04:02:11.099Z,7.20
2019-02-21T04:02:47.312Z,7.20
2019-02-21T04:03:22.892Z,7.20
2019-02-21T04:03:58.507Z,7.20
2019-02-21T04:04:35.322Z,7.20
2019-02-21T04:05:11.049Z,7.20
2019-02-21T04:05:46.717Z,7.20
2019-02-21T04:06:22.355Z,7.20
2019-02-21T04:06:57.936Z,7.20
2019-02-21T04:07:33.506Z,7.20
2019-02-21T04:08:09.174Z,7.20
2019-02-21T04:08:45.023Z,7.20
2019-02-21T04:09:20.663Z,7.20
2019-02-21T04:09:56.205Z,7.20
2019-02-21T04:10:31.781Z,7.20
2019-02-21T04:11:07.371Z,7.20
2019-02-21T04:11:43.277Z,7.20
2019-02-21T04:12:18.823Z,7.20
2019-02-21T04:12:54.727Z,7.20
2019-02-21T04:13:30.528Z,7.20
2019-02-21T04:14:06.409Z,7.30
2019-02-21T04:14:42.620Z,7.20
2019-02-21T04:15:18.648Z,7.20
2019-02-21T04:15:54.527Z,7.20
2019-02-21T04:16:30.099Z,7.20
2019-02-21T04:17:05.651Z,7.20
2019-02-21T04:17:42.205Z,7.20
2019-02-21T04:18:17.740Z,7.20
2019-02-21T04:18:53.295Z,7.20
2019-02-21T04:19:28.838Z,7.20
2019-02-21T04:20:04.690Z,7.20
2019-02-21T04:20:40.320Z,7.20
2019-02-21T04:21:15.882Z,7.20
2019-02-21T04:21:51.434Z,7.20
2019-02-21T04:22:26.984Z,7.20
2019-02-21T04:23:02.812Z,7.20
2019-02-21T04:23:38.471Z,7.20
2019-02-21T04:24:14.019Z,7.20
2019-02-21T04:24:49.576Z,7.20
2019-02-21T04:25:25.126Z,7.20
2019-02-21T04:26:00.705Z,7.20
2019-02-21T04:26:36.244Z,7.20
2019-02-21T04:27:11.861Z,7.20
2019-02-21T04:27:47.503Z,7.20
2019-02-21T04:28:23.379Z,7.20
2019-02-21T04:28:58.956Z,7.20
2019-02-21T04:29:34.650Z,7.20
2019-02-21T04:30:10.199Z,7.20
2019-02-21T04:30:45.759Z,7.20
2019-02-21T04:31:21.586Z,7.20
2019-02-21T04:31:57.195Z,7.20
2019-02-21T04:32:32.807Z,7.20
2019-02-21T04:33:08.350Z,7.20
2019-02-21T04:33:44.543Z,7.20
2019-02-21T04:34:20.074Z,7.20
2019-02-21T04:34:55.620Z,7.20
2019-02-21T04:35:31.227Z,7.20
2019-02-21T04:36:06.780Z,7.20
2019-02-21T04:36:42.336Z,7.20
2019-02-21T04:37:17.866Z,7.20
2019-02-21T04:37:53.448Z,7.20
2019-02-21T04:38:29.001Z,7.20
2019-02-21T04:39:04.987Z,7.20
2019-02-21T04:39:41.654Z,7.20
2019-02-21T04:40:17.192Z,7.20
2019-02-21T04:40:52.812Z,7.20
2019-02-21T04:41:28.366Z,7.20
2019-02-21T04:42:04.476Z,7.20
2019-02-21T04:42:40.028Z,7.20
2019-02-21T04:43:16.867Z,7.20
2019-02-21T04:43:52.650Z,7.20
2019-02-21T04:44:28.203Z,7.20
2019-02-21T04:45:03.816Z,7.10
2019-02-21T04:45:39.747Z,7.10
2019-02-21T04:46:15.313Z,7.10
2019-02-21T04:46:50.867Z,7.20
2019-02-21T04:47:26.446Z,7.10
2019-02-21T04:48:02.401Z,7.10
2019-02-21T04:48:37.967Z,7.10
2019-02-21T04:49:13.839Z,7.10
2019-02-21T04:49:49.410Z,7.10
2019-02-21T04:50:25.331Z,7.10
2019-02-21T04:51:01.254Z,7.10
2019-02-21T04:51:36.815Z,7.10
2019-02-21T04:52:12.454Z,7.10
2019-02-21T04:52:48.958Z,7.10
2019-02-21T04:53:24.558Z,7.10
2019-02-21T04:54:00.124Z,7.10
2019-02-21T04:54:35.686Z,7.10
2019-02-21T04:55:11.356Z,7.10
2019-02-21T04:55:47.198Z,7.10
2019-02-21T04:56:22.857Z,7.10
2019-02-21T04:56:58.401Z,7.10
2019-02-21T04:57:34.016Z,7.10
2019-02-21T04:58:11.273Z,7.10
2019-02-21T04:58:46.813Z,7.10
2019-02-21T04:59:22.369Z,7.10
2019-02-21T04:59:57.918Z,7.10
2019-02-21T05:00:33.468Z,7.10
2019-02-21T05:01:09.035Z,7.10
2019-02-21T05:01:45.267Z,7.10
2019-02-21T05:02:28.955Z,7.10
2019-02-21T05:02:58.085Z,7.10
2019-02-21T05:03:33.941Z,7.00
2019-02-21T05:04:09.594Z,7.00
2019-02-21T05:04:45.142Z,7.00
2019-02-21T05:05:20.714Z,7.00
2019-02-21T05:05:56.467Z,7.00
2019-02-21T05:06:32.041Z,7.00
2019-02-21T05:07:07.594Z,7.00
2019-02-21T05:07:43.205Z,7.00
2019-02-21T05:08:18.849Z,7.00
2019-02-21T05:08:54.742Z,7.00
2019-02-21T05:09:30.339Z,7.00
2019-02-21T05:10:05.891Z,7.00
2019-02-21T05:10:41.911Z,7.00
2019-02-21T05:11:17.490Z,7.00
2019-02-21T05:11:53.055Z,7.00
2019-02-21T05:12:28.601Z,7.00
2019-02-21T05:13:04.410Z,7.00
2019-02-21T05:13:39.969Z,7.00
2019-02-21T05:14:15.540Z,7.00
2019-02-21T05:14:52.423Z,7.00
2019-02-21T05:15:28.647Z,7.00
2019-02-21T05:16:04.493Z,7.00
2019-02-21T05:16:40.080Z,7.00
2019-02-21T05:17:15.638Z,7.00
2019-02-21T05:17:51.522Z,7.00
2019-02-21T05:18:27.064Z,7.00
2019-02-21T05:19:02.712Z,7.00
2019-02-21T05:19:38.262Z,7.00
2019-02-21T05:20:13.821Z,7.00
2019-02-21T05:20:49.443Z,6.90
2019-02-21T05:21:24.980Z,6.90
2019-02-21T05:22:00.859Z,7.00
2019-02-21T05:22:36.819Z,6.90
2019-02-21T05:23:13.331Z,6.90
2019-02-21T05:23:48.912Z,6.90
2019-02-21T05:24:24.776Z,6.90
2019-02-21T05:25:00.700Z,6.90
2019-02-21T05:25:36.271Z,6.90
2019-02-21T05:26:14.371Z,6.90
2019-02-21T05:26:56.668Z,6.90
2019-02-21T05:27:35.285Z,6.90
2019-02-21T05:28:22.357Z,6.90
2019-02-21T05:28:58.518Z,6.90
2019-02-21T05:29:34.066Z,6.90
2019-02-21T05:30:11.796Z,6.90
2019-02-21T05:30:48.606Z,6.90
2019-02-21T05:31:42.166Z,6.90
2019-02-21T05:32:24.832Z,6.90
2019-02-21T05:33:19.481Z,6.90
2019-02-21T05:34:08.584Z,6.90
2019-02-21T05:35:02.316Z,6.90
2019-02-21T05:35:44.440Z,6.90
2019-02-21T05:36:54.229Z,6.90
2019-02-21T05:37:38.507Z,6.90
2019-02-21T05:38:24.374Z,6.90
2019-02-21T05:39:19.722Z,6.90
2019-02-21T05:40:17.130Z,6.90
2019-02-21T05:41:07.375Z,6.80
2019-02-21T05:42:04.805Z,6.90
2019-02-21T05:42:59.451Z,6.80
2019-02-21T05:44:00.671Z,6.80
2019-02-21T05:45:10.754Z,6.80
2019-02-21T05:46:03.259Z,6.90
2019-02-21T05:46:57.979Z,6.80
2019-02-21T05:47:53.579Z,6.80
2019-02-21T05:48:53.475Z,6.80
2019-02-21T05:49:48.115Z,6.80
2019-02-21T05:50:32.992Z,6.80
2019-02-21T05:51:27.663Z,6.80
2019-02-21T05:52:20.443Z,6.80
2019-02-21T05:53:10.702Z,6.80
2019-02-21T05:53:54.012Z,6.80
2019-02-21T05:54:57.598Z,6.80
2019-02-21T05:55:48.280Z,6.90
2019-02-21T05:56:42.921Z,6.80
2019-02-21T05:57:53.076Z,6.80
2019-02-21T05:58:36.782Z,6.90
2019-02-21T05:59:20.339Z,6.80
2019-02-21T06:00:09.996Z,6.80
2019-02-21T06:01:04.665Z,6.90
2019-02-21T06:02:11.800Z,6.80
2019-02-21T06:02:55.819Z,6.80
2019-02-21T06:03:50.463Z,6.90
2019-02-21T06:04:47.950Z,6.80
2019-02-21T06:05:48.713Z,6.80
2019-02-21T06:06:55.661Z,6.80
2019-02-21T06:07:45.106Z,6.80
2019-02-21T06:08:47.291Z,6.80
2019-02-21T06:09:37.638Z,6.80
2019-02-21T06:10:38.729Z,6.80
2019-02-21T06:11:35.025Z,6.80
2019-02-21T06:12:33.118Z,6.80
2019-02-21T06:13:23.640Z,6.80
2019-02-21T06:14:09.087Z,6.80
2019-02-21T06:15:02.564Z,6.80
2019-02-21T06:15:57.447Z,6.80
2019-02-21T06:16:43.308Z,6.80
2019-02-21T06:17:29.091Z,6.80
2019-02-21T06:18:22.861Z,6.70
2019-02-21T06:19:23.649Z,6.70
2019-02-21T06:20:18.297Z,6.70
2019-02-21T06:21:06.485Z,6.70
2019-02-21T06:22:09.686Z,6.70
2019-02-21T06:22:53.434Z,6.80
2019-02-21T06:23:54.284Z,6.70
2019-02-21T06:24:35.070Z,6.80
2019-02-21T06:25:16.943Z,6.70
2019-02-21T06:26:14.802Z,6.70
2019-02-21T06:27:01.296Z,6.70
2019-02-21T06:27:41.491Z,6.70
2019-02-21T06:28:36.146Z,6.70
2019-02-21T06:29:16.363Z,6.70
2019-02-21T06:29:56.732Z,6.70
2019-02-21T06:30:37.146Z,6.70
2019-02-21T06:31:15.968Z,6.70
2019-02-21T06:31:51.938Z,6.70
2019-02-21T06:32:27.510Z,6.70
2019-02-21T06:33:05.383Z,6.70
2019-02-21T06:33:40.341Z,6.70
2019-02-21T06:34:15.924Z,6.70
2019-02-21T06:34:52.365Z,6.70
2019-02-21T06:35:28.298Z,6.70
2019-02-21T06:36:04.191Z,6.70
2019-02-21T06:36:39.760Z,6.70
2019-02-21T06:37:15.318Z,6.70
2019-02-21T06:37:51.678Z,6.70
2019-02-21T06:38:27.587Z,6.70
2019-02-21T06:39:04.134Z,6.70
2019-02-21T06:39:40.023Z,6.70
2019-02-21T06:40:15.954Z,6.70
2019-02-21T06:40:51.803Z,6.70
2019-02-21T06:41:29.897Z,6.70
2019-02-21T06:42:05.951Z,6.70
2019-02-21T06:42:41.786Z,6.70
2019-02-21T06:43:17.339Z,6.70
2019-02-21T06:43:53.155Z,6.70
2019-02-21T06:44:28.715Z,6.70
2019-02-21T06:45:04.697Z,6.70
2019-02-21T06:45:41.346Z,6.70
2019-02-21T06:46:16.903Z,6.70
2019-02-21T06:46:52.479Z,6.70
2019-02-21T06:47:28.611Z,6.70
2019-02-21T06:48:04.159Z,6.70
2019-02-21T06:48:40.189Z,6.70
2019-02-21T06:49:16.050Z,6.70
2019-02-21T06:49:51.975Z,6.70
2019-02-21T06:50:27.555Z,6.70
2019-02-21T06:51:04.090Z,6.70
2019-02-21T06:51:39.653Z,6.70
2019-02-21T06:52:15.745Z,6.70
2019-02-21T06:52:51.497Z,6.70
2019-02-21T06:53:27.042Z,6.70
2019-02-21T06:54:02.603Z,6.70
2019-02-21T06:54:38.178Z,6.70
2019-02-21T06:55:13.990Z,6.70
2019-02-21T06:55:49.546Z,6.70
2019-02-21T06:56:25.126Z,6.70
2019-02-21T06:57:00.711Z,6.70
2019-02-21T06:57:36.258Z,6.70
2019-02-21T06:58:11.902Z,6.70
2019-02-21T06:58:47.473Z,6.70
2019-02-21T06:59:23.806Z,6.70
2019-02-21T06:59:59.592Z,6.70
2019-02-21T07:00:35.491Z,6.70
2019-02-21T07:01:11.404Z,6.70
2019-02-21T07:01:47.067Z,6.70
2019-02-21T07:02:23.595Z,6.70
2019-02-21T07:02:59.240Z,6.70
2019-02-21T07:03:34.923Z,6.70
2019-02-21T07:04:10.559Z,6.70
2019-02-21T07:04:46.442Z,6.70
2019-02-21T07:05:22.283Z,6.70
2019-02-21T07:05:58.461Z,6.70
2019-02-21T07:06:34.020Z,6.70
2019-02-21T07:07:09.648Z,6.70
2019-02-21T07:07:45.238Z,6.70
2019-02-21T07:08:20.794Z,6.70
2019-02-21T07:08:56.354Z,6.80
2019-02-21T07:09:31.938Z,6.80
2019-02-21T07:10:07.661Z,6.80
2019-02-21T07:10:43.214Z,6.80
2019-02-21T07:11:19.133Z,6.80
2019-02-21T07:11:54.722Z,6.80
2019-02-21T07:12:30.602Z,6.80
2019-02-21T07:13:06.258Z,6.80
2019-02-21T07:13:41.823Z,6.80
2019-02-21T07:14:17.390Z,6.80
2019-02-21T07:14:54.279Z,6.80
2019-02-21T07:15:29.856Z,6.80
2019-02-21T07:16:05.755Z,6.80
2019-02-21T07:16:41.418Z,6.80
2019-02-21T07:17:16.976Z,6.90
2019-02-21T07:17:52.543Z,6.90
2019-02-21T07:18:28.984Z,6.90
2019-02-21T07:19:04.743Z,6.90
2019-02-21T07:19:40.483Z,6.90
2019-02-21T07:20:16.085Z,6.90
2019-02-21T07:20:51.670Z,7.00
2019-02-21T07:21:27.223Z,7.00
2019-02-21T07:22:06.074Z,7.00
2019-02-21T07:22:40.936Z,7.00
2019-02-21T07:23:16.491Z,7.00
2019-02-21T07:23:52.068Z,7.00
2019-02-21T07:24:27.687Z,7.00
2019-02-21T07:25:13.119Z,7.00
2019-02-21T07:25:51.475Z,7.00
2019-02-21T07:26:27.047Z,7.00
2019-02-21T07:27:02.640Z,7.00
2019-02-21T07:27:38.202Z,7.00
2019-02-21T07:28:15.927Z,7.00
2019-02-21T07:28:51.032Z,7.10
2019-02-21T07:29:26.600Z,7.10
2019-02-21T07:30:02.200Z,7.10
2019-02-21T07:30:37.936Z,7.10
2019-02-21T07:31:13.502Z,7.10
2019-02-21T07:31:49.517Z,7.10
2019-02-21T07:32:25.282Z,7.10
2019-02-21T07:33:01.267Z,7.10
2019-02-21T07:33:37.095Z,7.20
2019-02-21T07:34:12.961Z,7.20
2019-02-21T07:34:48.508Z,7.20
2019-02-21T07:35:24.651Z,7.20
2019-02-21T07:36:00.211Z,7.20
2019-02-21T07:36:35.911Z,7.20
2019-02-21T07:37:18.712Z,7.20
2019-02-21T07:37:49.171Z,7.30
2019-02-21T07:38:25.476Z,7.30
2019-02-21T07:39:13.841Z,7.30
2019-02-21T07:39:40.168Z,7.30
2019-02-21T07:40:19.985Z,7.30
2019-02-21T07:40:54.038Z,7.30
2019-02-21T07:41:29.633Z,7.30
2019-02-21T07:42:05.250Z,7.30
2019-02-21T07:42:41.181Z,7.30
2019-02-21T07:43:17.123Z,7.40
2019-02-21T07:43:52.679Z,7.40
2019-02-21T07:44:28.218Z,7.40
2019-02-21T07:45:03.806Z,7.40
2019-02-21T07:45:39.748Z,7.40
2019-02-21T07:46:15.356Z,7.40
2019-02-21T07:46:53.460Z,7.40
2019-02-21T07:47:28.825Z,7.40
2019-02-21T07:48:04.454Z,7.40
2019-02-21T07:48:41.316Z,7.50
2019-02-21T07:49:16.863Z,7.40
2019-02-21T07:49:52.546Z,7.50
2019-02-21T07:50:28.096Z,7.50
2019-02-21T07:51:03.728Z,7.50
2019-02-21T07:51:41.380Z,7.50
2019-02-21T07:52:16.556Z,7.50
2019-02-21T07:53:02.013Z,7.50
2019-02-21T07:53:29.646Z,7.50
2019-02-21T07:54:05.530Z,7.50
2019-02-21T07:54:41.098Z,7.50
2019-02-21T07:55:16.719Z,7.50
2019-02-21T07:55:52.354Z,7.50
2019-02-21T07:56:27.935Z,7.50
2019-02-21T07:57:03.499Z,7.50
2019-02-21T07:57:39.084Z,7.60
2019-02-21T07:58:14.646Z,7.60
2019-02-21T07:58:50.238Z,7.60
2019-02-21T07:59:25.793Z,7.60
2019-02-21T08:00:02.421Z,7.60
2019-02-21T08:00:37.987Z,7.70
2019-02-21T08:01:13.544Z,7.70
2019-02-21T08:01:49.404Z,7.70
2019-02-21T08:02:24.968Z,7.70
2019-02-21T08:03:00.544Z,7.70
2019-02-21T08:03:44.462Z,7.80
2019-02-21T08:04:13.779Z,7.80
2019-02-21T08:04:49.343Z,7.80
2019-02-21T08:05:24.897Z,7.80
2019-02-21T08:06:00.492Z,7.80
2019-02-21T08:06:37.038Z,7.90
2019-02-21T08:07:12.670Z,7.90
2019-02-21T08:07:49.893Z,7.90
2019-02-21T08:08:25.922Z,7.90
2019-02-21T08:09:01.563Z,7.90
2019-02-21T08:09:38.737Z,7.90
2019-02-21T08:10:16.276Z,7.90
2019-02-21T08:10:51.835Z,7.90
2019-02-21T08:11:27.762Z,7.90
2019-02-21T08:12:03.330Z,8.00
2019-02-21T08:12:40.608Z,8.00
2019-02-21T08:13:16.274Z,8.00
2019-02-21T08:13:51.907Z,8.00
2019-02-21T08:14:28.538Z,8.00
2019-02-21T08:15:04.156Z,8.00
2019-02-21T08:15:39.787Z,8.00
2019-02-21T08:16:15.342Z,8.10
2019-02-21T08:16:50.907Z,8.10
2019-02-21T08:17:27.969Z,8.10